Aikoumaru No.8 — JD3288 — position and weather

sailwx.info

Track history (hours):
 
Tides and Currents Weather Stations Pressure Air Temp Water Temp Dewpoint Dewpoint Depression Visibility Wind Speed Wind Dir Waves Ship Positions

Aikoumaru No.8

Last reported at 2016-Sep-17 09:33 UTC. Time now 2016-Sep-28 23:57 UTC.
Position N 34°37' E 135°03'.
Warning: this ship's position is 11 days out of date.

Length 74 m; draft 4.8 m.

Type: Cargo ship. MMSI: 431003153.

Date/timePositionNaut miles runAvg speedWind from/ knotsBaromVisibWave heightAir tempDewpointWater temp
2016-Sep-17 09:33N 34°37' E 135°03'1212.3
2016-Sep-17 08:33N 34°37' E 135°17'5 0.3
2016-Sep-16 17:29N 34°36' E 135°23'0 0.0
2016-Sep-16 15:29N 34°36' E 135°23'0 0.0
2016-Sep-16 12:23N 34°36' E 135°23'0 0.0
2016-Sep-16 09:29N 34°36' E 135°23'6 0.4
2016-Sep-15 21:11N 34°31' E 135°24'0 0.0
2016-Sep-15 20:05N 34°31' E 135°24'14 0.9
2016-Sep-15 04:32N 34°43' E 135°18'0 0.0
2016-Sep-15 03:32N 34°43' E 135°18'0 0.0
2016-Sep-15 01:32N 34°43' E 135°18'0 0.0
2016-Sep-14 22:08N 34°43' E 135°18'0 0.0
2016-Sep-14 21:32N 34°43' E 135°18'0 0.0
2016-Sep-14 17:32N 34°43' E 135°18'0 0.0
2016-Sep-14 16:32N 34°43' E 135°18'0 0.0
2016-Sep-14 13:32N 34°43' E 135°18'0 0.0
2016-Sep-14 12:32N 34°43' E 135°18'0 0.0
2016-Sep-14 10:32N 34°43' E 135°18'0 0.0
2016-Sep-14 09:26N 34°43' E 135°18'0 0.0
2016-Sep-14 08:32N 34°43' E 135°18'0 0.0
2016-Sep-14 07:29N 34°43' E 135°18'0 0.0
2016-Sep-14 06:32N 34°43' E 135°18'0 0.0
2016-Sep-14 03:33N 34°43' E 135°18'4 0.8
2016-Sep-13 22:33N 34°39' E 135°19'2611.5
2016-Sep-13 20:20N 34°17' E 135°03'  
Track history (hours):
 
Tides and Currents Weather Stations Pressure Air Temp Water Temp Dewpoint Dewpoint Depression Visibility Wind Speed Wind Dir Waves Ship Positions

Aikoumaru No.8

Last reported at 2016-Sep-17 09:33 UTC. Time now 2016-Sep-28 23:57 UTC.
Position N 34°37' E 135°03'.
Warning: this ship's position is 11 days out of date.

Length 74 m; draft 4.8 m.

Type: Cargo ship. MMSI: 431003153.

Date/timePositionNaut miles runAvg speedWind from/ knotsBaromVisibWave heightAir tempDewpointWater temp
2016-Sep-17 09:33N 34°37' E 135°03'1212.3
2016-Sep-17 08:33N 34°37' E 135°17'5 0.3
2016-Sep-16 17:29N 34°36' E 135°23'0 0.0
2016-Sep-16 15:29N 34°36' E 135°23'0 0.0
2016-Sep-16 12:23N 34°36' E 135°23'0 0.0
2016-Sep-16 09:29N 34°36' E 135°23'6 0.4
2016-Sep-15 21:11N 34°31' E 135°24'0 0.0
2016-Sep-15 20:05N 34°31' E 135°24'14 0.9
2016-Sep-15 04:32N 34°43' E 135°18'0 0.0
2016-Sep-15 03:32N 34°43' E 135°18'0 0.0
2016-Sep-15 01:32N 34°43' E 135°18'0 0.0
2016-Sep-14 22:08N 34°43' E 135°18'0 0.0
2016-Sep-14 21:32N 34°43' E 135°18'0 0.0
2016-Sep-14 17:32N 34°43' E 135°18'0 0.0
2016-Sep-14 16:32N 34°43' E 135°18'0 0.0
2016-Sep-14 13:32N 34°43' E 135°18'0 0.0
2016-Sep-14 12:32N 34°43' E 135°18'0 0.0
2016-Sep-14 10:32N 34°43' E 135°18'0 0.0
2016-Sep-14 09:26N 34°43' E 135°18'0 0.0
2016-Sep-14 08:32N 34°43' E 135°18'0 0.0
2016-Sep-14 07:29N 34°43' E 135°18'0 0.0
2016-Sep-14 06:32N 34°43' E 135°18'0 0.0
2016-Sep-14 03:33N 34°43' E 135°18'4 0.8
2016-Sep-13 22:33N 34°39' E 135°19'2611.5
2016-Sep-13 20:20N 34°17' E 135°03'  

Dump ship's entire track history